Time;durP1;ratioP1;P1;durP2;ratioP2;P2;SDS_P1;SDS_P2;PMS_P1;PMS_P2;Temp;Humidity;BMP_temperature;BMP_pressure;BME280_temperature;BME280_humidity;BME280_pressure;Samples;Min_cycle;Max_cycle;Signal;HPM_P1;HPM_P2
2021/06/16 00:00:27;;;;;;;5.65;3.50;;;;;;;;;;5077486;28;20039;-80
2021/06/16 00:02:53;;;;;;;6.40;3.85;;;;;;;;;;5077307;28;20445;-80
2021/06/16 00:05:21;;;;;;;4.63;3.47;;;;;;;;;;5077062;28;20433;-80
2021/06/16 00:07:48;;;;;;;3.95;3.28;;;;;;;;;;5064467;28;20056;-80
2021/06/16 00:10:15;;;;;;;5.03;2.80;;;;;;;;;;5072865;28;20036;-80
2021/06/16 00:12:41;;;;;;;3.53;2.90;;;;;;;;;;5074616;28;20078;-80
2021/06/16 00:15:18;;;;;;;3.22;2.92;;;;;;;;;;5074626;28;20103;-79
2021/06/16 00:17:48;;;;;;;3.60;3.05;;;;;;;;;;5075309;28;20025;-79
2021/06/16 00:20:14;;;;;;;2.95;2.53;;;;;;;;;;5075891;28;20032;-80
2021/06/16 00:22:40;;;;;;;5.38;3.20;;;;;;;;;;5057461;28;20017;-80
2021/06/16 00:25:07;;;;;;;5.30;3.25;;;;;;;;;;5075689;28;20386;-80
2021/06/16 00:27:35;;;;;;;4.72;3.20;;;;;;;;;;5075789;28;20030;-80
2021/06/16 00:30:02;;;;;;;3.20;2.42;;;;;;;;;;5058642;28;20020;-80
2021/06/16 00:32:28;;;;;;;2.47;2.25;;;;;;;;;;5059246;28;20039;-80
2021/06/16 00:34:54;;;;;;;3.60;2.50;;;;;;;;;;5060777;28;20016;-80
2021/06/16 00:37:22;;;;;;;2.50;2.30;;;;;;;;;;5060984;28;20036;-79
2021/06/16 00:39:51;;;;;;;2.30;1.95;;;;;;;;;;5080374;28;20055;-80
2021/06/16 00:42:17;;;;;;;2.00;1.80;;;;;;;;;;5080130;28;20531;-79
2021/06/16 00:44:43;;;;;;;3.20;2.67;;;;;;;;;;5079009;28;20382;-80
2021/06/16 00:47:09;;;;;;;3.95;2.95;;;;;;;;;;5061610;28;20081;-80
2021/06/16 00:49:38;;;;;;;3.40;2.70;;;;;;;;;;5086832;28;20031;-79
2021/06/16 00:52:07;;;;;;;2.47;2.28;;;;;;;;;;5066136;28;20028;-80
2021/06/16 00:54:34;;;;;;;4.97;2.88;;;;;;;;;;5081544;28;20041;-80
2021/06/16 00:57:00;;;;;;;4.13;2.60;;;;;;;;;;5085939;28;20020;-79
2021/06/16 00:59:27;;;;;;;2.70;2.50;;;;;;;;;;5086179;28;20021;-79
2021/06/16 01:01:54;;;;;;;5.35;2.70;;;;;;;;;;5079706;28;20020;-80
2021/06/16 01:04:23;;;;;;;6.72;2.92;;;;;;;;;;5084464;28;20024;-79
2021/06/16 01:06:49;;;;;;;2.40;2.20;;;;;;;;;;5066094;28;20493;-80
2021/06/16 01:09:16;;;;;;;3.38;2.30;;;;;;;;;;5058885;28;20029;-80
2021/06/16 01:12:03;;;;;;;3.45;2.22;;;;;;;;;;5059206;28;20040;-80
2021/06/16 01:14:52;;;;;;;2.90;2.40;;;;;;;;;;5076908;28;20024;-80
2021/06/16 01:17:20;;;;;;;2.95;2.47;;;;;;;;;;5063836;28;20044;-80
2021/06/16 01:20:09;;;;;;;2.33;2.00;;;;;;;;;;5059579;28;20059;-80
2021/06/16 01:22:51;;;;;;;5.28;1.90;;;;;;;;;;5076208;28;20058;-80
2021/06/16 01:25:34;;;;;;;2.20;2.00;;;;;;;;;;5093585;28;20044;-80
2021/06/16 01:28:01;;;;;;;2.17;2.00;;;;;;;;;;5083244;28;20021;-80
2021/06/16 01:30:29;;;;;;;1.88;1.77;;;;;;;;;;5060579;28;20459;-81
2021/06/16 01:32:55;;;;;;;2.17;2.00;;;;;;;;;;5077517;28;20039;-80
2021/06/16 01:35:24;;;;;;;3.30;2.00;;;;;;;;;;5078792;28;20024;-80
2021/06/16 01:37:51;;;;;;;2.17;1.88;;;;;;;;;;5076531;28;20499;-80
2021/06/16 01:40:18;;;;;;;4.70;2.45;;;;;;;;;;5078644;28;20036;-80
2021/06/16 01:42:44;;;;;;;4.05;2.33;;;;;;;;;;5080360;28;20032;-80
2021/06/16 01:45:11;;;;;;;3.70;2.53;;;;;;;;;;5080217;28;20076;-80
2021/06/16 01:47:37;;;;;;;2.30;1.83;;;;;;;;;;5062063;28;20070;-80
2021/06/16 01:50:04;;;;;;;2.97;1.90;;;;;;;;;;5062581;28;20021;-80
2021/06/16 01:52:32;;;;;;;2.30;1.80;;;;;;;;;;5079995;28;20029;-80
2021/06/16 01:54:58;;;;;;;2.50;1.88;;;;;;;;;;5076163;28;20033;-80
2021/06/16 01:57:25;;;;;;;2.55;2.35;;;;;;;;;;5079644;28;20033;-80
2021/06/16 01:59:53;;;;;;;1.95;1.75;;;;;;;;;;5061522;28;20036;-80
2021/06/16 02:02:19;;;;;;;1.90;1.75;;;;;;;;;;5062747;28;20024;-81
2021/06/16 02:04:45;;;;;;;3.08;2.03;;;;;;;;;;5062557;28;20039;-80
2021/06/16 02:07:15;;;;;;;1.92;1.80;;;;;;;;;;5079531;28;20477;-80
2021/06/16 02:09:43;;;;;;;2.55;1.65;;;;;;;;;;5079746;28;20028;-79
2021/06/16 02:12:11;;;;;;;1.88;1.77;;;;;;;;;;5078744;28;20238;-80
2021/06/16 02:14:38;;;;;;;2.13;1.65;;;;;;;;;;5079081;28;20089;-79
2021/06/16 02:17:16;;;;;;;5.03;2.05;;;;;;;;;;5061451;28;20036;-80
2021/06/16 02:19:42;;;;;;;1.67;1.58;;;;;;;;;;5080159;28;20092;-82
2021/06/16 02:22:09;;;;;;;1.77;1.65;;;;;;;;;;5079909;28;20388;-80
2021/06/16 02:24:36;;;;;;;1.60;1.45;;;;;;;;;;5079595;28;20428;-80
2021/06/16 02:27:02;;;;;;;2.05;1.85;;;;;;;;;;5061300;28;20024;-81
2021/06/16 02:29:29;;;;;;;2.17;1.50;;;;;;;;;;5061681;28;20024;-80
2021/06/16 02:31:55;;;;;;;2.60;2.00;;;;;;;;;;5079367;28;20043;-82
2021/06/16 02:34:21;;;;;;;2.25;2.00;;;;;;;;;;5079311;28;20029;-79
2021/06/16 02:36:49;;;;;;;2.58;1.92;;;;;;;;;;5078344;28;20093;-79
2021/06/16 02:39:19;;;;;;;1.75;1.65;;;;;;;;;;5078295;28;20029;-79
2021/06/16 02:41:46;;;;;;;1.70;1.60;;;;;;;;;;5078513;28;20095;-78
2021/06/16 02:44:12;;;;;;;3.70;1.73;;;;;;;;;;5084138;28;20025;-79
2021/06/16 02:46:39;;;;;;;1.55;1.45;;;;;;;;;;5067995;28;20035;-79
2021/06/16 02:49:06;;;;;;;1.70;1.60;;;;;;;;;;5091047;28;20051;-78
2021/06/16 02:51:33;;;;;;;2.30;2.08;;;;;;;;;;5076733;28;20039;-78
2021/06/16 02:54:01;;;;;;;2.42;2.03;;;;;;;;;;5091117;28;20028;-79
2021/06/16 02:56:28;;;;;;;1.80;1.70;;;;;;;;;;5094209;28;20034;-80
2021/06/16 02:58:54;;;;;;;2.22;2.03;;;;;;;;;;5094237;28;20033;-79
2021/06/16 03:01:21;;;;;;;1.92;1.60;;;;;;;;;;5077411;28;20039;-79
2021/06/16 03:03:48;;;;;;;2.35;1.75;;;;;;;;;;5090913;28;20044;-79
2021/06/16 03:06:16;;;;;;;1.65;1.55;;;;;;;;;;5079646;28;20527;-79
2021/06/16 03:08:44;;;;;;;1.73;1.60;;;;;;;;;;5079094;28;20439;-80
2021/06/16 03:11:11;;;;;;;1.83;1.42;;;;;;;;;;5079619;28;20052;-80
2021/06/16 03:13:37;;;;;;;1.73;1.63;;;;;;;;;;5078142;28;20491;-80
2021/06/16 03:16:03;;;;;;;2.13;1.92;;;;;;;;;;5077968;28;20020;-80
2021/06/16 03:18:29;;;;;;;1.65;1.55;;;;;;;;;;5077826;28;20108;-80
2021/06/16 03:20:57;;;;;;;2.13;1.52;;;;;;;;;;5078133;28;20400;-80
2021/06/16 03:23:26;;;;;;;1.85;1.48;;;;;;;;;;5078278;28;20027;-80
2021/06/16 03:25:53;;;;;;;1.77;1.67;;;;;;;;;;5072253;28;20048;-80
2021/06/16 03:28:21;;;;;;;2.00;1.77;;;;;;;;;;5059693;28;20092;-80
2021/06/16 03:30:47;;;;;;;2.25;1.80;;;;;;;;;;5060254;28;20043;-80
2021/06/16 03:33:14;;;;;;;1.58;1.48;;;;;;;;;;5078119;28;20029;-80
2021/06/16 03:35:40;;;;;;;3.97;2.10;;;;;;;;;;5077898;28;20393;-80
2021/06/16 03:38:07;;;;;;;2.90;2.03;;;;;;;;;;5059296;28;20025;-80
2021/06/16 03:40:34;;;;;;;1.65;1.50;;;;;;;;;;5077707;28;20027;-80
2021/06/16 03:43:00;;;;;;;2.58;1.80;;;;;;;;;;5078151;28;20454;-80
2021/06/16 03:45:27;;;;;;;1.95;1.83;;;;;;;;;;5087494;28;20402;-80
2021/06/16 03:47:58;;;;;;;2.03;1.83;;;;;;;;;;5078561;28;20142;-80
2021/06/16 03:50:25;;;;;;;2.80;1.67;;;;;;;;;;5061031;28;20030;-80
2021/06/16 03:52:52;;;;;;;1.85;1.65;;;;;;;;;;5059963;28;20020;-80
2021/06/16 03:55:19;;;;;;;1.95;1.50;;;;;;;;;;5064761;28;20090;-80
2021/06/16 03:57:45;;;;;;;1.60;1.50;;;;;;;;;;5077311;28;20055;-79
2021/06/16 04:00:12;;;;;;;3.30;1.90;;;;;;;;;;5077150;28;20017;-79
2021/06/16 04:02:38;;;;;;;1.77;1.45;;;;;;;;;;5076944;28;20020;-80
2021/06/16 04:05:05;;;;;;;1.85;1.75;;;;;;;;;;5076654;28;20060;-80
2021/06/16 04:07:31;;;;;;;1.70;1.60;;;;;;;;;;5076607;28;20021;-80
2021/06/16 04:09:57;;;;;;;2.17;1.83;;;;;;;;;;5076433;28;20103;-80
2021/06/16 04:12:24;;;;;;;1.40;1.30;;;;;;;;;;5076526;28;20036;-79
2021/06/16 04:14:50;;;;;;;2.40;1.45;;;;;;;;;;5083308;28;20044;-80
2021/06/16 04:17:17;;;;;;;1.70;1.60;;;;;;;;;;5095922;28;20016;-79
2021/06/16 04:19:44;;;;;;;1.60;1.45;;;;;;;;;;5064712;28;20163;-82
2021/06/16 04:22:10;;;;;;;1.98;1.33;;;;;;;;;;5077037;28;20020;-78
2021/06/16 04:24:36;;;;;;;1.73;1.30;;;;;;;;;;5071677;28;20031;-79
2021/06/16 04:27:02;;;;;;;2.28;1.42;;;;;;;;;;5077695;28;20024;-80
2021/06/16 04:29:28;;;;;;;2.22;1.70;;;;;;;;;;5075869;28;20047;-80
2021/06/16 04:31:55;;;;;;;1.55;1.45;;;;;;;;;;5077895;28;20036;-79
2021/06/16 04:34:22;;;;;;;1.50;1.40;;;;;;;;;;5078951;28;20115;-79
2021/06/16 04:36:48;;;;;;;2.25;1.90;;;;;;;;;;5060349;28;20029;-80
2021/06/16 04:39:15;;;;;;;4.22;1.83;;;;;;;;;;5077945;28;20442;-79
2021/06/16 04:41:41;;;;;;;1.88;1.60;;;;;;;;;;5078936;28;20032;-78
2021/06/16 04:44:07;;;;;;;2.03;1.60;;;;;;;;;;5063263;28;20039;-80
2021/06/16 04:46:33;;;;;;;1.40;1.30;;;;;;;;;;5062837;28;20028;-79
2021/06/16 04:48:59;;;;;;;1.42;1.30;;;;;;;;;;5085153;28;20084;-80
2021/06/16 04:51:25;;;;;;;9.90;2.42;;;;;;;;;;5085153;28;20131;-80
2021/06/16 04:53:52;;;;;;;2.33;1.40;;;;;;;;;;5082946;28;20025;-80
2021/06/16 04:56:18;;;;;;;1.73;1.52;;;;;;;;;;5084915;28;20461;-80
2021/06/16 04:58:44;;;;;;;2.13;1.75;;;;;;;;;;5078852;28;20025;-80
2021/06/16 05:01:10;;;;;;;2.78;1.88;;;;;;;;;;5077959;28;20055;-80
2021/06/16 05:03:36;;;;;;;1.80;1.70;;;;;;;;;;5077568;28;20414;-79
2021/06/16 05:06:02;;;;;;;1.45;1.35;;;;;;;;;;5078171;28;20032;-80
2021/06/16 05:08:28;;;;;;;1.73;1.52;;;;;;;;;;5059486;28;20047;-80
2021/06/16 05:10:54;;;;;;;1.45;1.38;;;;;;;;;;5078043;28;20028;-80
2021/06/16 05:13:21;;;;;;;1.15;1.05;;;;;;;;;;5079175;28;20064;-80
2021/06/16 05:15:47;;;;;;;2.42;1.13;;;;;;;;;;5062890;28;20071;-81
2021/06/16 05:18:13;;;;;;;2.20;1.20;;;;;;;;;;5064535;28;20063;-81
2021/06/16 05:20:39;;;;;;;2.47;1.70;;;;;;;;;;5082478;28;20439;-81
2021/06/16 05:23:05;;;;;;;2.08;1.25;;;;;;;;;;5083981;28;20016;-81
2021/06/16 05:25:31;;;;;;;1.88;1.50;;;;;;;;;;5081264;28;20067;-80
2021/06/16 05:27:58;;;;;;;2.10;1.20;;;;;;;;;;5063761;28;20036;-80
2021/06/16 05:30:24;;;;;;;1.30;1.30;;;;;;;;;;5081777;28;20025;-79
2021/06/16 05:32:50;;;;;;;3.33;1.83;;;;;;;;;;5082353;28;20021;-80
2021/06/16 05:35:16;;;;;;;1.75;1.42;;;;;;;;;;5087043;28;20012;-78
2021/06/16 05:37:46;;;;;;;1.42;1.33;;;;;;;;;;5092312;28;20027;-78
2021/06/16 05:40:12;;;;;;;1.63;1.52;;;;;;;;;;5077850;28;20036;-78
2021/06/16 05:42:38;;;;;;;1.50;1.40;;;;;;;;;;5078251;28;20027;-79
2021/06/16 05:45:05;;;;;;;1.48;1.38;;;;;;;;;;5079833;28;20047;-80
2021/06/16 05:47:31;;;;;;;1.67;1.50;;;;;;;;;;5080016;28;20100;-79
2021/06/16 05:49:57;;;;;;;1.13;1.05;;;;;;;;;;5081143;28;20029;-79
2021/06/16 05:52:23;;;;;;;1.45;1.33;;;;;;;;;;5080660;28;20024;-79
2021/06/16 05:54:49;;;;;;;1.35;1.20;;;;;;;;;;5082021;28;20027;-79
2021/06/16 05:57:18;;;;;;;1.35;1.27;;;;;;;;;;5082126;28;20029;-80
2021/06/16 05:59:44;;;;;;;1.60;1.38;;;;;;;;;;5063425;28;20032;-79
2021/06/16 06:02:10;;;;;;;3.05;1.77;;;;;;;;;;5062646;28;20027;-79
2021/06/16 06:04:36;;;;;;;2.00;1.50;;;;;;;;;;5078792;28;20047;-79
2021/06/16 06:07:03;;;;;;;3.10;1.70;;;;;;;;;;5080705;28;20020;-79
2021/06/16 06:09:30;;;;;;;1.92;1.83;;;;;;;;;;5081991;28;20020;-79
2021/06/16 06:11:56;;;;;;;2.15;1.90;;;;;;;;;;5062676;28;20028;-79
2021/06/16 06:14:22;;;;;;;1.70;1.60;;;;;;;;;;5079796;28;20340;-79
2021/06/16 06:16:48;;;;;;;1.50;1.40;;;;;;;;;;5079110;28;20075;-79
2021/06/16 06:19:14;;;;;;;4.18;1.98;;;;;;;;;;5078969;28;20028;-79
2021/06/16 06:21:40;;;;;;;1.50;1.40;;;;;;;;;;5078559;28;20090;-80
2021/06/16 06:24:06;;;;;;;1.15;1.13;;;;;;;;;;5079030;28;20021;-80
2021/06/16 06:26:33;;;;;;;2.55;1.85;;;;;;;;;;5078922;28;20021;-79
2021/06/16 06:29:02;;;;;;;1.90;1.70;;;;;;;;;;5080446;28;20465;-81
2021/06/16 06:31:28;;;;;;;1.77;1.67;;;;;;;;;;5080494;28;20028;-80
2021/06/16 06:33:55;;;;;;;1.15;1.10;;;;;;;;;;5079257;28;20031;-80
2021/06/16 06:36:21;;;;;;;1.60;1.50;;;;;;;;;;5061073;28;20024;-80
2021/06/16 06:38:48;;;;;;;2.40;1.88;;;;;;;;;;5061344;28;20043;-78
2021/06/16 06:41:15;;;;;;;3.22;1.90;;;;;;;;;;5076949;28;20072;-80
2021/06/16 06:43:41;;;;;;;3.08;2.03;;;;;;;;;;5080377;28;20025;-81
2021/06/16 06:46:07;;;;;;;1.80;1.70;;;;;;;;;;5079822;28;20021;-80
2021/06/16 06:48:34;;;;;;;3.90;2.00;;;;;;;;;;5083407;28;20466;-80
2021/06/16 06:51:00;;;;;;;2.35;2.15;;;;;;;;;;5084337;28;20021;-79
2021/06/16 06:53:28;;;;;;;1.98;1.77;;;;;;;;;;5082027;28;20025;-78
2021/06/16 06:55:55;;;;;;;2.95;1.98;;;;;;;;;;5080693;28;20115;-80
2021/06/16 06:58:21;;;;;;;1.98;1.80;;;;;;;;;;5080215;28;20396;-80
2021/06/16 07:00:47;;;;;;;2.15;1.63;;;;;;;;;;5086911;28;20025;-77
2021/06/16 07:03:13;;;;;;;2.80;1.67;;;;;;;;;;5083203;28;20027;-79
2021/06/16 07:05:39;;;;;;;1.65;1.55;;;;;;;;;;5083012;28;20385;-79
2021/06/16 07:08:05;;;;;;;2.13;1.90;;;;;;;;;;5094106;28;20081;-79
2021/06/16 07:10:31;;;;;;;2.13;1.90;;;;;;;;;;5078561;28;20044;-80
2021/06/16 07:12:57;;;;;;;2.28;2.08;;;;;;;;;;5067823;28;20203;-79
2021/06/16 07:15:23;;;;;;;2.00;1.65;;;;;;;;;;5084347;28;20024;-79
2021/06/16 07:17:49;;;;;;;2.10;1.90;;;;;;;;;;5084785;28;20050;-80
2021/06/16 07:20:18;;;;;;;2.58;2.38;;;;;;;;;;5084725;28;20040;-79
2021/06/16 07:22:45;;;;;;;2.75;2.28;;;;;;;;;;5086149;28;20092;-80
2021/06/16 07:25:12;;;;;;;2.83;2.10;;;;;;;;;;5068778;28;20071;-80
2021/06/16 07:27:38;;;;;;;4.53;2.17;;;;;;;;;;5081168;28;20028;-81
2021/06/16 07:30:05;;;;;;;2.30;2.10;;;;;;;;;;5083800;28;20134;-81
2021/06/16 07:32:34;;;;;;;1.75;1.65;;;;;;;;;;5084445;28;20031;-82
2021/06/16 07:35:00;;;;;;;2.47;1.83;;;;;;;;;;5066100;28;20036;-80
2021/06/16 07:37:27;;;;;;;2.15;1.95;;;;;;;;;;5062664;28;20501;-80
2021/06/16 07:39:54;;;;;;;2.88;2.10;;;;;;;;;;5080530;28;20035;-80
2021/06/16 07:42:20;;;;;;;3.17;2.05;;;;;;;;;;5081071;28;20017;-78
2021/06/16 07:44:46;;;;;;;3.80;1.83;;;;;;;;;;5061876;28;20025;-78
2021/06/16 07:47:12;;;;;;;2.00;1.90;;;;;;;;;;5079126;28;20027;-79
2021/06/16 07:49:38;;;;;;;1.92;1.80;;;;;;;;;;5078310;28;20025;-79
2021/06/16 07:52:04;;;;;;;3.03;1.80;;;;;;;;;;5079123;28;20172;-79
2021/06/16 07:54:31;;;;;;;2.30;1.77;;;;;;;;;;5062415;28;20029;-78
2021/06/16 07:56:57;;;;;;;5.30;2.40;;;;;;;;;;5076612;28;20158;-79
2021/06/16 07:59:23;;;;;;;2.10;1.80;;;;;;;;;;5078299;28;20039;-81
2021/06/16 08:01:49;;;;;;;3.78;2.00;;;;;;;;;;5079153;28;20020;-81
2021/06/16 08:04:15;;;;;;;2.25;2.03;;;;;;;;;;5063689;28;20036;-80
2021/06/16 08:06:41;;;;;;;3.42;2.10;;;;;;;;;;5085058;28;20023;-81
2021/06/16 08:09:08;;;;;;;2.08;1.88;;;;;;;;;;5084386;28;20028;-81
2021/06/16 08:11:34;;;;;;;3.10;2.15;;;;;;;;;;5087260;28;20051;-80
2021/06/16 08:14:00;;;;;;;2.67;2.10;;;;;;;;;;5086928;28;20460;-82
2021/06/16 08:16:26;;;;;;;4.03;2.10;;;;;;;;;;5063741;28;20040;-81
2021/06/16 08:18:53;;;;;;;3.38;2.35;;;;;;;;;;5061776;28;20142;-80
2021/06/16 08:21:19;;;;;;;5.10;2.20;;;;;;;;;;5078512;28;20025;-79
2021/06/16 08:23:46;;;;;;;3.67;1.95;;;;;;;;;;5078245;28;20473;-79
2021/06/16 08:26:13;;;;;;;5.05;2.30;;;;;;;;;;5077957;28;20056;-80
2021/06/16 08:28:39;;;;;;;3.17;1.77;;;;;;;;;;5078203;28;20043;-80
2021/06/16 08:31:05;;;;;;;2.85;1.80;;;;;;;;;;5061358;28;20027;-80
2021/06/16 08:33:31;;;;;;;5.45;1.95;;;;;;;;;;5078653;28;20036;-79
2021/06/16 08:35:57;;;;;;;5.70;2.40;;;;;;;;;;5079207;28;20103;-81
2021/06/16 08:38:23;;;;;;;2.40;2.00;;;;;;;;;;5078781;28;20031;-82
2021/06/16 08:40:49;;;;;;;4.65;1.98;;;;;;;;;;5078498;28;20080;-80
2021/06/16 08:43:16;;;;;;;1.98;1.80;;;;;;;;;;5081347;28;20085;-79
2021/06/16 08:45:42;;;;;;;3.90;1.92;;;;;;;;;;5079631;28;20541;-80
2021/06/16 08:48:09;;;;;;;3.08;2.08;;;;;;;;;;5064709;28;20013;-78
2021/06/16 08:50:36;;;;;;;4.25;2.80;;;;;;;;;;5068977;28;20084;-79
2021/06/16 08:53:02;;;;;;;6.13;2.15;;;;;;;;;;5087678;28;20070;-78
2021/06/16 08:55:28;;;;;;;3.72;2.05;;;;;;;;;;5071636;28;20025;-79
2021/06/16 08:57:54;;;;;;;2.45;2.08;;;;;;;;;;5091042;28;20092;-80
2021/06/16 09:00:22;;;;;;;4.32;2.05;;;;;;;;;;5073533;28;20334;-80
2021/06/16 09:02:48;;;;;;;3.75;2.10;;;;;;;;;;5076572;28;20035;-81
2021/06/16 09:05:14;;;;;;;2.25;2.05;;;;;;;;;;5088801;28;20047;-81
2021/06/16 09:07:41;;;;;;;4.35;1.90;;;;;;;;;;5084228;28;20478;-79
2021/06/16 09:10:13;;;;;;;7.05;2.03;;;;;;;;;;5081546;28;20054;-80
2021/06/16 09:12:44;;;;;;;1.88;1.70;;;;;;;;;;5063900;28;20068;-81
2021/06/16 09:15:11;;;;;;;3.27;2.00;;;;;;;;;;5083013;28;20016;-81
2021/06/16 09:17:37;;;;;;;5.72;2.17;;;;;;;;;;5082740;28;20327;-80
2021/06/16 09:20:03;;;;;;;4.47;2.45;;;;;;;;;;5083616;28;20028;-81
2021/06/16 09:22:29;;;;;;;3.97;2.20;;;;;;;;;;5081758;28;20024;-79
2021/06/16 09:24:56;;;;;;;3.78;2.00;;;;;;;;;;5080754;28;20040;-80
2021/06/16 09:27:37;;;;;;;3.33;1.90;;;;;;;;;;5080659;28;20121;-79
2021/06/16 09:30:04;;;;;;;2.90;1.92;;;;;;;;;;5085559;28;20448;-79
2021/06/16 09:32:43;;;;;;;2.97;2.10;;;;;;;;;;5083722;28;20024;-80
2021/06/16 09:35:19;;;;;;;4.28;2.20;;;;;;;;;;5066392;28;20025;-80
2021/06/16 09:37:45;;;;;;;3.58;2.15;;;;;;;;;;5063724;28;20374;-80
2021/06/16 09:40:11;;;;;;;2.20;1.90;;;;;;;;;;5064852;28;20028;-80
2021/06/16 09:42:37;;;;;;;2.30;2.10;;;;;;;;;;5095073;28;20028;-81
2021/06/16 09:45:04;;;;;;;2.25;2.03;;;;;;;;;;5084012;28;20051;-79
2021/06/16 09:47:30;;;;;;;3.53;2.05;;;;;;;;;;5083899;28;20083;-80
2021/06/16 09:49:56;;;;;;;1.92;1.73;;;;;;;;;;5082402;28;20024;-80
2021/06/16 09:52:28;;;;;;;3.05;1.98;;;;;;;;;;5063261;28;20082;-80
2021/06/16 09:54:54;;;;;;;3.30;1.90;;;;;;;;;;5080081;28;20021;-80
2021/06/16 09:57:20;;;;;;;3.72;2.50;;;;;;;;;;5079770;28;20040;-81
2021/06/16 09:59:46;;;;;;;2.95;2.17;;;;;;;;;;5081752;28;20029;-80
2021/06/16 10:02:20;;;;;;;2.15;2.03;;;;;;;;;;5069083;28;20036;-80
2021/06/16 10:04:55;;;;;;;3.75;2.10;;;;;;;;;;5097133;28;20149;-80
2021/06/16 10:07:25;;;;;;;3.53;2.30;;;;;;;;;;5062633;28;20020;-80
2021/06/16 10:09:52;;;;;;;2.95;2.20;;;;;;;;;;5061983;28;20028;-79
2021/06/16 10:12:18;;;;;;;3.28;2.00;;;;;;;;;;5074234;28;20099;-81
2021/06/16 10:14:48;;;;;;;4.13;1.98;;;;;;;;;;5084563;28;20036;-80
2021/06/16 10:17:15;;;;;;;3.25;2.00;;;;;;;;;;5061868;28;20393;-81
2021/06/16 10:19:42;;;;;;;2.38;1.50;;;;;;;;;;5081809;28;20474;-80
2021/06/16 10:22:08;;;;;;;2.22;1.95;;;;;;;;;;5081026;28;20024;-80
2021/06/16 10:24:34;;;;;;;2.75;1.70;;;;;;;;;;5060102;28;20036;-79
2021/06/16 10:27:01;;;;;;;2.28;2.00;;;;;;;;;;5078248;28;20025;-80
2021/06/16 10:29:29;;;;;;;2.10;2.00;;;;;;;;;;5061594;28;20033;-80
2021/06/16 10:32:25;;;;;;;3.90;1.75;;;;;;;;;;5079493;28;20020;-80
2021/06/16 10:34:54;;;;;;;4.07;2.00;;;;;;;;;;5080853;28;20150;-78
2021/06/16 10:37:31;;;;;;;3.13;1.80;;;;;;;;;;5079633;28;20048;-79
2021/06/16 10:40:15;;;;;;;4.82;1.83;;;;;;;;;;5080664;28;20504;-79
2021/06/16 10:43:03;;;;;;;3.03;2.10;;;;;;;;;;5063379;28;20025;-79
2021/06/16 10:45:36;;;;;;;2.03;1.80;;;;;;;;;;5080837;28;20027;-79
2021/06/16 10:48:04;;;;;;;3.17;1.90;;;;;;;;;;5082049;28;20481;-80
2021/06/16 10:50:46;;;;;;;3.67;2.00;;;;;;;;;;5065245;28;20039;-79
2021/06/16 10:53:13;;;;;;;1.95;1.60;;;;;;;;;;5083910;28;20382;-79
2021/06/16 10:55:57;;;;;;;2.63;1.50;;;;;;;;;;5080964;28;20096;-79
2021/06/16 10:58:25;;;;;;;1.67;1.58;;;;;;;;;;5080220;28;20021;-79
2021/06/16 11:01:12;;;;;;;2.15;1.23;;;;;;;;;;5078088;28;20020;-79
2021/06/16 11:03:51;;;;;;;1.95;1.65;;;;;;;;;;5059800;28;20109;-78
2021/06/16 11:06:35;;;;;;;3.08;1.50;;;;;;;;;;5076101;28;20463;-78
2021/06/16 11:09:12;;;;;;;2.72;1.77;;;;;;;;;;5077533;28;20020;-79
2021/06/16 11:11:44;;;;;;;2.42;2.22;;;;;;;;;;5078912;28;20183;-79
2021/06/16 11:14:10;;;;;;;2.65;2.15;;;;;;;;;;5060324;28;20028;-80
2021/06/16 11:16:40;;;;;;;5.05;1.90;;;;;;;;;;5079286;28;20432;-80
2021/06/16 11:19:20;;;;;;;2.35;1.67;;;;;;;;;;5078136;28;20013;-79
2021/06/16 11:21:46;;;;;;;3.53;1.75;;;;;;;;;;5078158;28;20021;-78
2021/06/16 11:24:12;;;;;;;2.53;2.00;;;;;;;;;;5079077;28;20496;-79
2021/06/16 11:26:42;;;;;;;2.78;1.98;;;;;;;;;;5079506;28;20474;-80
2021/06/16 11:29:08;;;;;;;4.15;2.17;;;;;;;;;;5079536;28;20028;-80
2021/06/16 11:31:54;;;;;;;2.90;1.95;;;;;;;;;;5043919;22;20057;-81
2021/06/16 11:34:38;;;;;;;2.38;2.22;;;;;;;;;;4999656;28;20038;-80
2021/06/16 11:37:04;;;;;;;1.75;1.58;;;;;;;;;;5000146;28;20023;-82
2021/06/16 11:39:34;;;;;;;3.22;2.00;;;;;;;;;;4981818;28;20034;-81
2021/06/16 11:42:00;;;;;;;2.72;1.90;;;;;;;;;;4982395;28;20045;-81
2021/06/16 11:44:27;;;;;;;2.22;2.03;;;;;;;;;;5001786;28;20023;-82
2021/06/16 11:46:58;;;;;;;3.50;1.85;;;;;;;;;;5000142;28;20026;-82
2021/06/16 11:49:25;;;;;;;1.88;1.60;;;;;;;;;;4982189;28;20514;-81
2021/06/16 11:51:51;;;;;;;2.88;1.92;;;;;;;;;;4984195;28;20041;-82
2021/06/16 11:54:24;;;;;;;2.63;2.15;;;;;;;;;;5005941;28;20089;-82
2021/06/16 11:56:54;;;;;;;2.13;1.92;;;;;;;;;;5016065;28;20040;-81
2021/06/16 11:59:38;;;;;;;3.03;1.60;;;;;;;;;;5004653;28;20029;-81
2021/06/16 12:02:04;;;;;;;2.08;1.60;;;;;;;;;;5021447;28;20026;-82
2021/06/16 12:04:42;;;;;;;2.38;2.15;;;;;;;;;;5004065;28;20033;-80
2021/06/16 12:07:08;;;;;;;1.70;1.60;;;;;;;;;;5018226;28;20116;-81
2021/06/16 12:09:47;;;;;;;2.40;1.98;;;;;;;;;;5001903;28;20041;-81
2021/06/16 12:12:13;;;;;;;1.90;1.80;;;;;;;;;;4999005;28;20019;-80
2021/06/16 12:14:40;;;;;;;3.20;1.67;;;;;;;;;;4999018;28;20073;-81
2021/06/16 12:17:06;;;;;;;2.47;1.63;;;;;;;;;;4999990;28;20030;-81
2021/06/16 12:19:36;;;;;;;3.30;1.85;;;;;;;;;;4999853;28;20045;-81
2021/06/16 12:22:06;;;;;;;4.32;2.13;;;;;;;;;;5000937;28;20023;-80
2021/06/16 12:24:34;;;;;;;2.05;1.90;;;;;;;;;;5000002;28;20080;-80
2021/06/16 12:27:03;;;;;;;2.72;1.77;;;;;;;;;;4998763;28;20022;-81
2021/06/16 12:29:30;;;;;;;1.67;1.58;;;;;;;;;;4998914;28;20053;-80
2021/06/16 12:31:59;;;;;;;1.92;1.55;;;;;;;;;;4999908;28;20042;-78
2021/06/16 12:34:41;;;;;;;2.25;1.77;;;;;;;;;;4987313;28;20023;-80
2021/06/16 12:37:09;;;;;;;2.75;1.80;;;;;;;;;;4998418;28;20086;-80
2021/06/16 12:39:35;;;;;;;1.60;1.50;;;;;;;;;;4995692;28;20114;-81
2021/06/16 12:42:06;;;;;;;2.90;1.52;;;;;;;;;;5011592;28;20022;-80
2021/06/16 12:44:39;;;;;;;3.60;1.77;;;;;;;;;;4988781;28;20023;-79
2021/06/16 12:47:12;;;;;;;3.83;1.70;;;;;;;;;;4998080;28;20409;-80
2021/06/16 12:49:44;;;;;;;3.30;1.55;;;;;;;;;;4998776;28;20081;-82
2021/06/16 12:52:14;;;;;;;1.50;1.40;;;;;;;;;;4998060;28;20030;-81
2021/06/16 12:54:47;;;;;;;2.17;1.50;;;;;;;;;;5010095;28;20068;-81
2021/06/16 12:57:14;;;;;;;2.08;1.73;;;;;;;;;;5010011;28;20087;-80
2021/06/16 12:59:50;;;;;;;3.17;1.70;;;;;;;;;;5000668;28;20053;-81
2021/06/16 13:02:27;;;;;;;1.73;1.60;;;;;;;;;;5019982;28;20022;-81
2021/06/16 13:04:57;;;;;;;1.75;1.65;;;;;;;;;;4990100;28;20069;-80
2021/06/16 13:07:23;;;;;;;3.22;1.95;;;;;;;;;;5000539;28;20367;-81
2021/06/16 13:10:16;;;;;;;4.30;1.83;;;;;;;;;;5000389;28;20288;-81
2021/06/16 13:12:54;;;;;;;3.55;1.80;;;;;;;;;;4972406;28;20082;-79
2021/06/16 13:15:20;;;;;;;1.33;1.23;;;;;;;;;;5002460;28;20065;-80
2021/06/16 13:17:47;;;;;;;2.08;1.38;;;;;;;;;;5001129;28;20394;-80
2021/06/16 13:20:14;;;;;;;1.15;1.08;;;;;;;;;;4999268;28;20035;-80
2021/06/16 13:22:42;;;;;;;3.38;1.58;;;;;;;;;;4984552;28;20018;-80
2021/06/16 13:25:21;;;;;;;3.72;1.90;;;;;;;;;;5008632;28;20430;-80
2021/06/16 13:27:52;;;;;;;3.20;1.20;;;;;;;;;;5013234;28;20030;-81
2021/06/16 13:30:26;;;;;;;2.13;1.42;;;;;;;;;;5021594;28;20034;-81
2021/06/16 13:32:52;;;;;;;3.08;1.40;;;;;;;;;;5021936;28;20445;-81
2021/06/16 13:35:18;;;;;;;2.17;1.80;;;;;;;;;;5021713;28;20088;-81
2021/06/16 13:37:45;;;;;;;2.35;1.33;;;;;;;;;;5028436;28;20030;-80
2021/06/16 13:40:11;;;;;;;2.03;1.40;;;;;;;;;;4989667;28;20038;-81
2021/06/16 13:42:38;;;;;;;2.35;1.20;;;;;;;;;;5004484;28;20030;-81
2021/06/16 13:45:04;;;;;;;4.75;1.42;;;;;;;;;;5004697;28;20034;-81
2021/06/16 13:47:30;;;;;;;1.88;1.42;;;;;;;;;;5004797;28;20030;-81
2021/06/16 13:49:56;;;;;;;1.67;1.38;;;;;;;;;;5004730;28;20291;-80
2021/06/16 13:52:22;;;;;;;2.38;1.40;;;;;;;;;;5005026;28;20026;-80
2021/06/16 13:54:51;;;;;;;2.30;1.42;;;;;;;;;;5001784;28;20029;-80
2021/06/16 13:57:17;;;;;;;6.38;1.80;;;;;;;;;;5013524;28;20064;-80
2021/06/16 13:59:44;;;;;;;1.70;1.60;;;;;;;;;;5022719;28;20026;-81
2021/06/16 14:02:10;;;;;;;2.15;1.48;;;;;;;;;;5021736;28;20022;-81
2021/06/16 14:04:36;;;;;;;4.97;1.42;;;;;;;;;;5021913;28;20084;-81
2021/06/16 14:07:03;;;;;;;4.22;1.60;;;;;;;;;;5003797;28;20092;-82
2021/06/16 14:09:29;;;;;;;2.03;1.60;;;;;;;;;;5014673;28;20037;-82
2021/06/16 14:11:55;;;;;;;1.50;1.40;;;;;;;;;;5001719;28;20081;-82
2021/06/16 14:14:21;;;;;;;6.20;1.58;;;;;;;;;;5001421;28;20136;-81
2021/06/16 14:16:47;;;;;;;2.58;1.20;;;;;;;;;;5001245;28;20065;-81
2021/06/16 14:19:13;;;;;;;2.13;1.50;;;;;;;;;;5002839;28;20403;-82
2021/06/16 14:21:39;;;;;;;1.65;1.55;;;;;;;;;;5002885;28;20038;-81
2021/06/16 14:24:05;;;;;;;2.15;1.80;;;;;;;;;;5003729;28;20077;-81
2021/06/16 14:26:31;;;;;;;4.03;1.40;;;;;;;;;;5011331;28;20042;-81
2021/06/16 14:28:57;;;;;;;2.85;1.40;;;;;;;;;;5017568;28;20022;-81
2021/06/16 14:31:24;;;;;;;1.73;1.63;;;;;;;;;;5005502;28;20045;-81
2021/06/16 14:33:50;;;;;;;1.70;1.60;;;;;;;;;;5001674;28;20427;-81
2021/06/16 14:36:16;;;;;;;2.13;1.58;;;;;;;;;;5002041;28;20026;-80
2021/06/16 14:38:42;;;;;;;2.80;1.70;;;;;;;;;;5004538;28;20014;-79
2021/06/16 14:41:08;;;;;;;2.60;1.40;;;;;;;;;;5018180;28;20102;-78
2021/06/16 14:43:34;;;;;;;2.00;1.33;;;;;;;;;;4999465;28;20030;-80
2021/06/16 14:46:00;;;;;;;2.97;1.70;;;;;;;;;;4998778;28;20019;-81
2021/06/16 14:48:27;;;;;;;2.97;1.65;;;;;;;;;;4998032;28;20022;-80